Terminal Aerodrome Forecast
Issued by NWS

Home | Current Version | Previous Version | Text Only | Print | Product List | Glossary Off
Versions: 1 2 3 4 5 6 7 8 9 10 11 12 13 14 15 16 17 18 19 20

000
FTUS41 KCLE 241700
TAFFDY
TAF
KFDY 241740Z 2418/2518 09007KT P6SM SCT025
     FM242100 09006KT P6SM SCT035
     FM250800 14003KT 5SM BR SCT030 BKN070
     FM251300 16003KT 5SM BR BKN008
     FM251500 16007KT P6SM BKN015=

USA.gov is the U.S. government's official web portal to all federal, state and local government web resources and services.